Time;durP1;ratioP1;P1;durP2;ratioP2;P2;SDS_P1;SDS_P2;PMS_P1;PMS_P2;Temp;Humidity;BMP_temperature;BMP_pressure;BME280_temperature;BME280_humidity;BME280_pressure;Samples;Min_cycle;Max_cycle;Signal;HPM_P1;HPM_P2
2023/03/01 00:01:20;;;;;;;1.20;1.10;;;-2.40;99.90;;;;;;5083211;28;20430;-67
2023/03/01 00:03:50;;;;;;;2.05;1.35;;;-2.40;99.90;;;;;;5076753;28;20438;-66
2023/03/01 00:06:20;;;;;;;1.58;1.25;;;-2.40;99.90;;;;;;5081253;28;20431;-66
2023/03/01 00:08:47;;;;;;;1.10;0.98;;;-2.50;99.90;;;;;;5082772;28;20778;-66
2023/03/01 00:11:29;;;;;;;1.70;1.10;;;-2.50;99.90;;;;;;5078210;28;20521;-66
2023/03/01 00:14:00;;;;;;;1.42;1.23;;;-2.50;99.90;;;;;;5078999;28;20992;-66
2023/03/01 00:16:30;;;;;;;0.88;0.88;;;-2.50;99.90;;;;;;5084132;28;20429;-66
2023/03/01 00:18:58;;;;;;;2.75;1.35;;;-2.60;99.90;;;;;;5082074;28;20426;-66
2023/03/01 00:21:28;;;;;;;2.25;0.93;;;-2.60;99.90;;;;;;5079083;28;20513;-66
2023/03/01 00:24:04;;;;;;;1.38;1.27;;;-2.50;99.90;;;;;;5068966;28;20431;-66
2023/03/01 00:26:31;;;;;;;2.45;1.40;;;-2.40;99.90;;;;;;5073789;28;20789;-66
2023/03/01 00:29:01;;;;;;;0.60;0.55;;;-2.30;99.90;;;;;;5072259;28;20448;-66
2023/03/01 00:31:30;;;;;;;1.43;1.07;;;-2.30;99.90;;;;;;5081105;28;20513;-66
2023/03/01 00:34:02;;;;;;;1.73;1.60;;;-2.30;99.90;;;;;;5080998;28;20503;-66
2023/03/01 00:36:32;;;;;;;1.38;1.23;;;-2.40;99.90;;;;;;5084305;28;20513;-66
2023/03/01 00:39:00;;;;;;;1.67;1.58;;;-2.60;99.90;;;;;;5079955;28;20449;-66
2023/03/01 00:41:27;;;;;;;1.17;0.98;;;-2.70;99.90;;;;;;5076944;28;20465;-66
2023/03/01 00:43:54;;;;;;;2.70;1.60;;;-2.80;99.90;;;;;;5068749;28;20438;-66
2023/03/01 00:46:24;;;;;;;0.95;0.95;;;-2.90;99.90;;;;;;5079188;28;20432;-66
2023/03/01 00:48:52;;;;;;;1.45;1.27;;;-2.80;99.90;;;;;;5086666;28;20434;-66
2023/03/01 00:51:27;;;;;;;1.40;1.35;;;-2.90;99.90;;;;;;5075848;28;20424;-66
2023/03/01 00:53:59;;;;;;;0.85;0.85;;;-2.90;99.90;;;;;;5075231;28;20432;-66
2023/03/01 00:56:27;;;;;;;2.70;1.10;;;-2.90;99.90;;;;;;5076912;28;20969;-66
2023/03/01 00:58:54;;;;;;;1.05;1.05;;;-3.00;99.90;;;;;;5078206;28;20508;-66
2023/03/01 01:01:24;;;;;;;2.17;1.35;;;-3.00;99.90;;;;;;5075776;28;20431;-66
2023/03/01 01:03:57;;;;;;;1.83;1.73;;;-2.90;99.90;;;;;;5074406;28;20459;-66
2023/03/01 01:06:34;;;;;;;2.60;1.20;;;-2.90;99.90;;;;;;5079261;28;20513;-66
2023/03/01 01:09:02;;;;;;;1.33;1.10;;;-2.80;99.90;;;;;;5081681;28;20934;-66
2023/03/01 01:11:30;;;;;;;2.78;1.20;;;-2.70;99.90;;;;;;5067568;28;20429;-66
2023/03/01 01:13:58;;;;;;;1.10;1.10;;;-2.80;99.90;;;;;;5075595;28;20432;-66
2023/03/01 01:16:27;;;;;;;1.00;0.80;;;-2.70;99.90;;;;;;5077137;28;20434;-66
2023/03/01 01:18:56;;;;;;;1.33;1.17;;;-2.70;99.90;;;;;;5078295;28;20429;-66
2023/03/01 01:21:24;;;;;;;2.30;0.95;;;-2.60;99.90;;;;;;5077927;28;20430;-66
2023/03/01 01:23:51;;;;;;;2.90;1.30;;;-2.50;99.90;;;;;;5075281;28;20430;-66
2023/03/01 01:26:30;;;;;;;1.02;0.80;;;-2.40;99.90;;;;;;5078561;28;20772;-66
2023/03/01 01:28:58;;;;;;;2.63;1.50;;;-2.30;99.90;;;;;;5083873;28;20457;-66
2023/03/01 01:31:33;;;;;;;1.55;1.15;;;-2.30;99.90;;;;;;5077890;28;20428;-66
2023/03/01 01:34:01;;;;;;;1.75;1.45;;;-2.30;99.90;;;;;;5076962;28;20430;-66
2023/03/01 01:36:29;;;;;;;1.85;1.23;;;-2.40;99.90;;;;;;5073481;28;20426;-66
2023/03/01 01:38:57;;;;;;;0.95;0.95;;;-2.40;99.90;;;;;;5072466;28;20459;-65
2023/03/01 01:41:28;;;;;;;1.60;1.50;;;-2.50;99.90;;;;;;5085378;28;21022;-66
2023/03/01 01:44:23;;;;;;;0.82;0.82;;;-2.40;99.90;;;;;;5072304;28;20938;-65
2023/03/01 01:47:01;;;;;;;2.78;1.30;;;-2.40;99.90;;;;;;5086432;28;20475;-65
2023/03/01 01:49:48;;;;;;;1.97;1.30;;;-2.50;99.90;;;;;;5068789;28;20416;-66
2023/03/01 01:52:24;;;;;;;1.55;1.42;;;-2.50;99.90;;;;;;5085329;28;20448;-65
2023/03/01 01:54:56;;;;;;;1.37;0.87;;;-2.60;99.90;;;;;;5074297;28;20427;-66
2023/03/01 01:57:27;;;;;;;2.05;1.05;;;-2.70;99.90;;;;;;5078809;28;20446;-65
2023/03/01 01:59:58;;;;;;;0.57;0.57;;;-2.70;99.90;;;;;;5079183;28;20488;-65
2023/03/01 02:02:26;;;;;;;1.60;1.50;;;-2.70;99.90;;;;;;5079280;28;20442;-65
2023/03/01 02:05:03;;;;;;;1.50;0.93;;;-2.60;99.90;;;;;;5072121;28;20961;-65
2023/03/01 02:07:30;;;;;;;1.27;1.08;;;-2.60;99.90;;;;;;5078910;28;20431;-65
2023/03/01 02:09:58;;;;;;;1.20;1.10;;;-2.70;99.90;;;;;;5077403;28;20446;-65
2023/03/01 02:12:25;;;;;;;2.40;1.50;;;-2.70;99.90;;;;;;5069485;28;20965;-65
2023/03/01 02:14:54;;;;;;;1.63;0.77;;;-2.70;99.90;;;;;;5075146;28;20423;-65
2023/03/01 02:17:22;;;;;;;1.38;0.82;;;-2.60;99.90;;;;;;5076223;28;21132;-66
2023/03/01 02:19:57;;;;;;;2.60;1.60;;;-2.50;99.90;;;;;;5067668;28;20428;-65
2023/03/01 02:22:28;;;;;;;1.30;1.20;;;-2.40;99.90;;;;;;5074696;28;20917;-65
2023/03/01 02:24:55;;;;;;;1.50;1.40;;;-2.40;99.90;;;;;;5084007;28;20418;-65
2023/03/01 02:27:28;;;;;;;1.52;1.08;;;-2.20;99.90;;;;;;5077456;28;20425;-65
2023/03/01 02:29:54;;;;;;;0.93;0.93;;;-2.20;99.90;;;;;;5073184;28;20837;-65
2023/03/01 02:32:24;;;;;;;3.08;1.50;;;-2.20;99.90;;;;;;5076224;28;20434;-65
2023/03/01 02:34:56;;;;;;;1.25;1.25;;;-2.30;99.90;;;;;;5079488;28;20434;-65
2023/03/01 02:37:25;;;;;;;1.58;1.20;;;-2.30;99.90;;;;;;5073261;28;20436;-65
2023/03/01 02:40:05;;;;;;;0.43;0.43;;;-2.30;99.90;;;;;;5080069;28;20769;-65
2023/03/01 02:42:40;;;;;;;1.77;1.37;;;-2.30;99.90;;;;;;5074271;28;20435;-65
2023/03/01 02:45:08;;;;;;;1.23;1.13;;;-2.30;99.90;;;;;;5068221;28;20425;-66
2023/03/01 02:47:34;;;;;;;1.80;1.70;;;-2.30;99.90;;;;;;5068275;28;20431;-66
2023/03/01 02:50:01;;;;;;;1.05;0.95;;;-2.30;99.90;;;;;;5068980;28;20433;-64
2023/03/01 02:52:33;;;;;;;1.00;1.00;;;-2.20;99.90;;;;;;5069357;28;20430;-64
2023/03/01 02:55:08;;;;;;;1.95;1.40;;;-2.30;99.90;;;;;;5070040;28;20430;-64
2023/03/01 02:57:37;;;;;;;1.73;1.67;;;-2.30;99.90;;;;;;5075765;28;20435;-64
2023/03/01 03:00:09;;;;;;;1.15;1.13;;;-2.20;99.90;;;;;;5075283;28;20448;-64
2023/03/01 03:02:36;;;;;;;1.70;1.52;;;-2.20;99.90;;;;;;5079178;28;20512;-64
2023/03/01 03:05:08;;;;;;;1.50;1.42;;;-2.20;99.90;;;;;;5083226;28;20817;-64
2023/03/01 03:07:37;;;;;;;1.38;1.27;;;-2.20;99.90;;;;;;5080663;28;20775;-64
2023/03/01 03:10:07;;;;;;;5.20;1.52;;;-2.30;99.90;;;;;;5076249;28;20774;-64
2023/03/01 03:12:34;;;;;;;1.95;0.77;;;-2.30;99.90;;;;;;5082117;28;21004;-64
2023/03/01 03:15:01;;;;;;;3.38;1.15;;;-2.30;99.90;;;;;;5076988;28;20427;-64
2023/03/01 03:17:28;;;;;;;2.22;1.30;;;-2.20;99.90;;;;;;5084069;28;20454;-64
2023/03/01 03:19:54;;;;;;;2.67;1.60;;;-2.20;99.90;;;;;;5077810;28;20509;-65
2023/03/01 03:22:21;;;;;;;2.25;1.42;;;-2.20;99.90;;;;;;5080063;28;20426;-64
2023/03/01 03:24:48;;;;;;;1.10;1.00;;;-2.10;99.90;;;;;;5082389;28;20459;-64
2023/03/01 03:27:15;;;;;;;1.55;1.23;;;-2.10;99.90;;;;;;5082797;28;20427;-64
2023/03/01 03:29:47;;;;;;;1.70;1.10;;;-2.10;99.90;;;;;;5072756;28;20504;-64
2023/03/01 03:32:14;;;;;;;3.13;1.42;;;-2.10;99.90;;;;;;5080431;28;20890;-65
2023/03/01 03:34:41;;;;;;;3.53;1.70;;;-2.10;99.90;;;;;;5079565;28;20974;-65
2023/03/01 03:40:03;;;;;;;2.92;1.42;;;-2.10;99.90;;;;;;5077698;28;20518;-65
2023/03/01 03:42:29;;;;;;;1.58;1.48;;;-2.10;99.90;;;;;;5081656;28;20433;-65
2023/03/01 03:44:56;;;;;;;1.38;1.27;;;-2.10;99.90;;;;;;5072602;28;20505;-65
2023/03/01 03:47:23;;;;;;;1.77;1.40;;;-2.00;99.90;;;;;;5078572;28;20435;-65
2023/03/01 03:49:50;;;;;;;2.00;1.45;;;-2.00;99.90;;;;;;5071232;28;20554;-64
2023/03/01 03:52:16;;;;;;;1.67;1.58;;;-2.00;99.90;;;;;;5081549;28;20930;-65
2023/03/01 03:54:49;;;;;;;1.38;1.27;;;-2.00;99.90;;;;;;5082104;28;20427;-65
2023/03/01 03:57:16;;;;;;;0.95;0.95;;;-2.00;99.90;;;;;;5078049;28;20433;-65
2023/03/01 03:59:43;;;;;;;2.20;1.55;;;-1.90;99.90;;;;;;5078881;28;20442;-65
2023/03/01 04:02:09;;;;;;;2.20;1.00;;;-1.90;99.90;;;;;;5074475;28;20431;-65
2023/03/01 04:04:36;;;;;;;1.40;1.08;;;-1.90;99.90;;;;;;5074907;28;20440;-65
2023/03/01 04:07:03;;;;;;;1.95;1.40;;;-1.90;99.90;;;;;;5083144;28;20446;-65
2023/03/01 04:09:30;;;;;;;5.70;1.67;;;-1.90;99.90;;;;;;5086478;28;20429;-65
2023/03/01 04:11:56;;;;;;;3.70;1.25;;;-1.90;99.90;;;;;;5076048;28;20436;-65
2023/03/01 04:14:23;;;;;;;2.25;1.45;;;-2.00;99.90;;;;;;5074293;28;21086;-65
2023/03/01 04:16:50;;;;;;;2.50;1.38;;;-1.90;99.90;;;;;;5081009;28;20418;-65
2023/03/01 04:19:17;;;;;;;2.00;1.83;;;-2.00;99.90;;;;;;5072739;28;20459;-65
2023/03/01 04:21:43;;;;;;;3.10;1.85;;;-2.00;99.90;;;;;;5083230;28;20447;-65
2023/03/01 04:24:10;;;;;;;1.38;1.30;;;-2.00;99.90;;;;;;5070368;28;20518;-65
2023/03/01 04:26:37;;;;;;;2.10;0.98;;;-2.10;99.90;;;;;;5073953;28;20427;-65
2023/03/01 04:29:04;;;;;;;1.10;1.10;;;-2.10;99.90;;;;;;5070161;28;20797;-65
2023/03/01 04:31:30;;;;;;;2.28;1.42;;;-2.10;99.90;;;;;;5072651;28;20426;-65
2023/03/01 04:33:57;;;;;;;1.40;1.30;;;-2.10;99.90;;;;;;5074995;28;20433;-64
2023/03/01 04:36:27;;;;;;;4.53;1.73;;;-2.20;99.90;;;;;;5078570;28;20420;-65
2023/03/01 04:38:55;;;;;;;2.00;1.70;;;-2.30;99.90;;;;;;5072624;28;20427;-64
2023/03/01 04:41:24;;;;;;;1.70;1.60;;;-2.30;99.90;;;;;;5086277;28;20439;-65
2023/03/01 04:43:51;;;;;;;5.30;2.05;;;-2.40;99.90;;;;;;5079012;28;20431;-65
2023/03/01 04:46:21;;;;;;;1.90;1.73;;;-2.40;99.90;;;;;;5078869;28;20550;-65
2023/03/01 04:48:48;;;;;;;1.87;1.40;;;-2.30;99.90;;;;;;5082010;28;20902;-65
2023/03/01 04:51:15;;;;;;;1.25;1.17;;;-2.30;99.90;;;;;;5074799;28;20496;-65
2023/03/01 04:53:43;;;;;;;0.95;0.93;;;-2.40;99.90;;;;;;5068817;28;21061;-64
2023/03/01 04:56:10;;;;;;;2.30;1.35;;;-2.30;99.90;;;;;;5077264;28;20513;-65
2023/03/01 04:58:37;;;;;;;3.30;1.40;;;-2.30;99.90;;;;;;5075255;28;20427;-64
2023/03/01 05:01:19;;;;;;;1.20;1.20;;;-2.40;99.90;;;;;;5078386;28;20426;-64
2023/03/01 05:03:51;;;;;;;1.67;1.60;;;-2.40;99.90;;;;;;5074641;28;20461;-64
2023/03/01 05:06:19;;;;;;;5.20;0.90;;;-2.50;99.90;;;;;;5080624;28;20426;-64
2023/03/01 05:08:45;;;;;;;2.28;1.05;;;-2.50;99.90;;;;;;5080503;28;20437;-64
2023/03/01 05:11:12;;;;;;;3.70;1.33;;;-2.40;99.90;;;;;;5078076;28;20487;-64
2023/03/01 05:13:40;;;;;;;1.80;1.67;;;-2.40;99.90;;;;;;5077145;28;20428;-64
2023/03/01 05:16:10;;;;;;;1.63;1.50;;;-2.30;99.90;;;;;;5083378;28;21571;-64
2023/03/01 05:18:39;;;;;;;2.67;2.00;;;-2.40;99.90;;;;;;5073260;28;20435;-65
2023/03/01 05:21:10;;;;;;;1.50;1.13;;;-2.40;99.90;;;;;;5079078;28;20432;-65
2023/03/01 05:23:37;;;;;;;1.05;1.05;;;-2.40;99.90;;;;;;5078951;28;20470;-64
2023/03/01 05:26:06;;;;;;;2.83;1.47;;;-2.40;99.90;;;;;;5081543;28;20433;-64
2023/03/01 05:28:37;;;;;;;2.38;1.50;;;-2.40;99.90;;;;;;5082119;28;20433;-65
2023/03/01 05:31:09;;;;;;;1.77;1.42;;;-2.30;99.90;;;;;;5082054;28;20431;-65
2023/03/01 05:33:40;;;;;;;1.25;1.15;;;-2.20;99.90;;;;;;5084483;28;20453;-64
2023/03/01 05:36:09;;;;;;;1.90;1.80;;;-2.20;99.90;;;;;;5083402;28;20430;-64
2023/03/01 05:38:36;;;;;;;1.77;1.52;;;-2.20;99.90;;;;;;5075635;28;22323;-64
2023/03/01 05:41:03;;;;;;;4.03;2.03;;;-2.10;99.90;;;;;;5083038;28;20475;-64
2023/03/01 05:43:33;;;;;;;2.90;1.40;;;-2.10;99.90;;;;;;5078783;28;20479;-64
2023/03/01 05:46:00;;;;;;;3.60;1.10;;;-2.00;99.90;;;;;;5068390;28;20423;-64
2023/03/01 05:48:27;;;;;;;0.80;0.80;;;-2.00;99.90;;;;;;5073575;28;20441;-64
2023/03/01 05:50:54;;;;;;;1.53;1.43;;;-1.90;99.90;;;;;;5075412;28;20506;-64
2023/03/01 05:53:21;;;;;;;1.80;1.70;;;-1.90;99.90;;;;;;5070202;28;20458;-64
2023/03/01 05:55:49;;;;;;;2.50;1.73;;;-1.90;99.90;;;;;;5067909;28;20481;-65
2023/03/01 05:58:19;;;;;;;1.55;1.27;;;-1.90;99.90;;;;;;5071403;28;20526;-64
2023/03/01 06:00:48;;;;;;;1.90;1.42;;;-1.90;99.90;;;;;;5077750;28;20428;-65
2023/03/01 06:03:16;;;;;;;4.03;1.33;;;-1.90;99.90;;;;;;5080214;28;20489;-64
2023/03/01 06:05:43;;;;;;;5.85;2.35;;;-1.90;99.90;;;;;;5077251;28;20926;-64
2023/03/01 06:08:12;;;;;;;2.50;2.20;;;-1.90;99.90;;;;;;5074314;28;20436;-64
2023/03/01 06:10:43;;;;;;;2.30;1.30;;;-2.00;99.90;;;;;;5072442;28;20432;-64
2023/03/01 06:13:09;;;;;;;2.75;1.67;;;-2.00;99.90;;;;;;5078591;28;20516;-64
2023/03/01 06:15:36;;;;;;;1.33;1.23;;;-2.00;99.90;;;;;;5067523;28;20427;-64
2023/03/01 06:18:03;;;;;;;2.83;1.70;;;-1.90;99.90;;;;;;5079405;28;20526;-64
2023/03/01 06:20:30;;;;;;;3.40;1.50;;;-2.00;99.90;;;;;;5069752;28;20925;-64
2023/03/01 06:22:57;;;;;;;1.92;1.73;;;-1.90;99.90;;;;;;5070622;28;20910;-65
2023/03/01 06:25:26;;;;;;;2.80;1.60;;;-1.90;99.90;;;;;;5070961;28;20433;-65
2023/03/01 06:27:53;;;;;;;2.03;1.90;;;-1.80;99.90;;;;;;5092379;28;20433;-64
2023/03/01 06:30:21;;;;;;;1.37;1.17;;;-1.70;99.90;;;;;;5067684;28;20435;-65
2023/03/01 06:32:48;;;;;;;1.88;1.67;;;-1.70;99.90;;;;;;5076046;28;21193;-64
2023/03/01 06:35:17;;;;;;;3.60;1.95;;;-1.60;99.90;;;;;;5066590;28;20514;-64
2023/03/01 06:37:45;;;;;;;2.60;1.83;;;-1.60;99.90;;;;;;5081161;28;20900;-64
2023/03/01 06:40:13;;;;;;;2.00;1.67;;;-1.50;99.90;;;;;;5067490;28;20419;-64
2023/03/01 06:42:43;;;;;;;5.10;1.63;;;-1.40;99.90;;;;;;5070474;28;20423;-64
2023/03/01 06:45:10;;;;;;;1.20;1.20;;;-1.40;99.90;;;;;;5066122;28;20430;-64
2023/03/01 06:47:40;;;;;;;3.03;1.67;;;-1.30;99.90;;;;;;5074661;28;20460;-64
2023/03/01 06:50:07;;;;;;;1.70;1.60;;;-1.30;99.90;;;;;;5077239;28;20453;-64
2023/03/01 06:52:34;;;;;;;1.33;1.27;;;-1.30;99.90;;;;;;5074532;28;20845;-64
2023/03/01 06:55:01;;;;;;;2.95;1.75;;;-1.40;99.90;;;;;;5072997;28;20426;-64
2023/03/01 06:57:28;;;;;;;1.50;1.40;;;-1.40;99.90;;;;;;5079836;28;20511;-64
2023/03/01 06:59:57;;;;;;;1.83;1.73;;;-1.40;99.90;;;;;;5074450;28;20487;-64
2023/03/01 07:02:23;;;;;;;1.75;1.42;;;-1.30;99.90;;;;;;5067329;28;20417;-64
2023/03/01 07:04:52;;;;;;;3.72;1.75;;;-1.30;99.90;;;;;;5066028;28;20533;-64
2023/03/01 07:07:18;;;;;;;1.80;1.70;;;-1.30;99.90;;;;;;5070591;28;20906;-64
2023/03/01 07:09:46;;;;;;;2.33;1.60;;;-1.30;99.90;;;;;;5073714;28;20512;-64
2023/03/01 07:12:13;;;;;;;2.15;2.00;;;-1.30;99.90;;;;;;5075461;28;20425;-64
2023/03/01 07:14:40;;;;;;;2.60;1.65;;;-1.30;99.90;;;;;;5076649;28;20426;-64
2023/03/01 07:17:07;;;;;;;3.88;1.95;;;-1.30;99.90;;;;;;5067681;28;20468;-64
2023/03/01 07:19:35;;;;;;;3.55;1.17;;;-1.30;99.90;;;;;;5072102;28;21137;-64
2023/03/01 07:22:04;;;;;;;1.75;1.23;;;-1.20;99.90;;;;;;5075499;28;20431;-64
2023/03/01 07:24:31;;;;;;;1.48;1.10;;;-1.10;99.90;;;;;;5076772;28;20492;-63
2023/03/01 07:26:57;;;;;;;1.48;1.38;;;-1.00;99.90;;;;;;5079490;28;20920;-64
2023/03/01 07:29:24;;;;;;;3.65;2.40;;;-0.90;99.90;;;;;;5081658;28;20438;-64
2023/03/01 07:31:51;;;;;;;3.53;1.35;;;-0.70;99.90;;;;;;5073590;28;20427;-64
2023/03/01 07:34:17;;;;;;;1.70;1.60;;;-0.60;99.90;;;;;;5065885;28;20430;-64
2023/03/01 07:36:45;;;;;;;1.95;1.67;;;-0.40;99.90;;;;;;5073118;28;20423;-64
2023/03/01 07:39:12;;;;;;;2.63;2.17;;;-0.20;99.90;;;;;;5078762;28;20451;-71
2023/03/01 07:41:39;;;;;;;3.03;1.70;;;0.00;99.90;;;;;;5074222;28;20498;-65
2023/03/01 07:44:06;;;;;;;2.15;1.80;;;0.30;99.90;;;;;;5080150;28;20456;-65
2023/03/01 07:46:33;;;;;;;2.17;1.83;;;0.50;99.90;;;;;;5077607;28;20421;-65
2023/03/01 07:48:59;;;;;;;4.40;1.92;;;0.80;99.90;;;;;;5082438;28;20457;-65
2023/03/01 07:51:29;;;;;;;3.28;1.90;;;1.10;99.90;;;;;;5082844;28;20506;-65
2023/03/01 07:53:58;;;;;;;6.65;1.83;;;1.20;99.90;;;;;;5094658;28;20906;-65
2023/03/01 07:56:25;;;;;;;2.67;1.80;;;1.40;99.90;;;;;;5082962;28;20445;-65
2023/03/01 07:58:52;;;;;;;3.30;2.03;;;1.50;99.90;;;;;;5085919;28;20429;-65
2023/03/01 08:01:21;;;;;;;1.70;1.60;;;1.70;99.90;;;;;;5073432;28;20900;-65
2023/03/01 08:03:48;;;;;;;3.35;2.17;;;1.90;99.90;;;;;;5083002;28;20452;-65
2023/03/01 08:06:16;;;;;;;2.30;1.95;;;2.10;99.90;;;;;;5074596;28;20968;-65
2023/03/01 08:08:46;;;;;;;2.80;2.50;;;2.10;99.90;;;;;;5076734;28;20514;-65
2023/03/01 08:11:17;;;;;;;2.20;2.08;;;2.20;99.90;;;;;;5077616;28;21083;-65
2023/03/01 08:13:50;;;;;;;2.70;1.45;;;2.30;99.90;;;;;;5064150;28;20932;-65
2023/03/01 08:16:18;;;;;;;3.15;2.17;;;2.30;99.90;;;;;;5075802;28;20430;-65
2023/03/01 08:18:45;;;;;;;5.43;2.42;;;2.10;99.90;;;;;;5077720;28;20430;-65
2023/03/01 08:21:15;;;;;;;2.17;1.98;;;2.20;99.90;;;;;;5066953;28;20475;-65
2023/03/01 08:23:43;;;;;;;2.58;2.38;;;2.50;99.90;;;;;;5066490;28;20479;-65
2023/03/01 08:26:18;;;;;;;1.75;1.30;;;2.80;99.90;;;;;;5062994;28;20438;-62
2023/03/01 08:28:50;;;;;;;4.50;1.45;;;3.10;99.90;;;;;;5075270;28;20431;-62
2023/03/01 08:31:37;;;;;;;1.40;1.30;;;3.30;99.90;;;;;;5081722;28;20792;-63
2023/03/01 08:34:07;;;;;;;1.58;1.48;;;3.40;99.90;;;;;;5079083;28;20425;-63
2023/03/01 08:36:43;;;;;;;4.97;2.63;;;3.60;99.90;;;;;;5079426;28;20505;-63
2023/03/01 08:39:15;;;;;;;3.10;2.33;;;3.80;99.90;;;;;;5080677;28;20535;-63
2023/03/01 08:41:43;;;;;;;3.90;2.30;;;3.90;99.90;;;;;;5083411;28;20683;-63
2023/03/01 08:44:16;;;;;;;1.83;1.70;;;4.10;99.90;;;;;;5078920;28;20962;-63
2023/03/01 08:46:46;;;;;;;2.05;1.83;;;4.30;99.90;;;;;;5078565;28;20434;-64
2023/03/01 08:49:18;;;;;;;4.10;2.25;;;4.40;99.90;;;;;;5077853;28;20560;-63
2023/03/01 08:51:46;;;;;;;3.33;1.70;;;4.40;99.90;;;;;;5096020;28;20988;-66
2023/03/01 08:54:15;;;;;;;2.20;2.00;;;4.40;99.90;;;;;;5072303;28;21079;-63
2023/03/01 08:56:42;;;;;;;2.80;2.30;;;4.50;99.90;;;;;;5074420;28;20515;-63
2023/03/01 08:59:13;;;;;;;2.42;2.13;;;4.30;99.90;;;;;;5085799;28;20863;-65
2023/03/01 09:01:43;;;;;;;2.75;1.50;;;4.20;99.90;;;;;;5071991;28;20442;-65
2023/03/01 09:04:11;;;;;;;3.97;2.50;;;3.90;99.90;;;;;;5095482;28;20435;-65
2023/03/01 09:06:38;;;;;;;2.97;2.05;;;3.80;99.90;;;;;;5081459;28;20439;-65
2023/03/01 09:09:05;;;;;;;4.25;2.53;;;3.80;99.90;;;;;;5088141;28;20438;-65
2023/03/01 09:11:33;;;;;;;3.70;2.47;;;3.90;99.90;;;;;;5078286;28;20430;-65
2023/03/01 09:14:00;;;;;;;6.63;2.58;;;3.90;99.90;;;;;;5072172;28;20833;-65
2023/03/01 09:16:26;;;;;;;2.92;2.25;;;4.10;99.90;;;;;;5078247;28;20482;-65
2023/03/01 09:18:54;;;;;;;3.75;2.58;;;4.30;99.90;;;;;;5077225;28;20432;-65
2023/03/01 09:21:23;;;;;;;2.78;1.60;;;4.30;99.90;;;;;;5088285;28;20521;-65
2023/03/01 09:24:13;;;;;;;2.03;1.90;;;4.20;99.90;;;;;;5071316;28;20491;-63
2023/03/01 09:26:41;;;;;;;4.97;3.28;;;4.20;99.90;;;;;;5077745;28;20441;-63
2023/03/01 09:29:09;;;;;;;2.92;2.40;;;4.70;99.90;;;;;;5086007;28;20444;-63
2023/03/01 09:31:38;;;;;;;3.60;2.40;;;4.90;99.90;;;;;;5081605;28;20431;-63
2023/03/01 09:34:06;;;;;;;3.92;2.85;;;5.00;99.90;;;;;;5071955;28;20430;-64
2023/03/01 09:36:33;;;;;;;3.13;2.55;;;5.00;99.90;;;;;;5077617;28;20438;-64
2023/03/01 09:39:00;;;;;;;4.45;2.30;;;5.10;99.90;;;;;;5082119;28;20846;-64
2023/03/01 09:41:52;;;;;;;5.85;2.70;;;5.20;99.90;;;;;;5085563;28;20997;-64
2023/03/01 09:44:32;;;;;;;4.00;2.90;;;5.30;99.90;;;;;;5074432;28;20546;-64
2023/03/01 09:47:00;;;;;;;5.43;2.33;;;5.60;99.90;;;;;;5087252;28;20433;-64
2023/03/01 09:49:32;;;;;;;3.42;2.63;;;5.70;99.90;;;;;;5081325;28;20469;-65
2023/03/01 09:52:30;;;;;;;3.00;2.43;;;5.70;99.90;;;;;;5070754;28;20828;-64
2023/03/01 09:54:57;;;;;;;2.90;2.58;;;5.70;99.90;;;;;;5072685;28;20428;-64
2023/03/01 09:57:38;;;;;;;2.22;1.88;;;6.00;99.90;;;;;;5077663;28;20439;-64
2023/03/01 10:00:36;;;;;;;2.90;2.40;;;6.20;99.90;;;;;;5076554;28;20429;-64
2023/03/01 10:03:17;;;;;;;3.83;2.33;;;6.00;99.90;;;;;;5082932;28;20441;-64
2023/03/01 10:05:55;;;;;;;3.72;2.38;;;5.80;99.90;;;;;;5069310;28;20541;-65
2023/03/01 10:08:30;;;;;;;3.13;2.88;;;6.10;99.90;;;;;;5070918;28;20436;-64
2023/03/01 10:10:58;;;;;;;5.15;2.60;;;6.40;99.90;;;;;;5069855;28;20423;-65
2023/03/01 10:13:32;;;;;;;3.28;2.15;;;6.50;99.90;;;;;;5090737;28;20423;-65
2023/03/01 10:16:13;;;;;;;2.42;2.05;;;6.80;99.90;;;;;;5074729;28;20427;-65
2023/03/01 10:18:40;;;;;;;2.38;2.17;;;6.90;99.90;;;;;;5076307;28;21446;-65
2023/03/01 10:21:17;;;;;;;2.47;2.28;;;6.60;99.90;;;;;;5079384;28;20426;-65
2023/03/01 10:23:51;;;;;;;2.75;2.25;;;6.80;99.90;;;;;;5072519;28;20427;-65
2023/03/01 10:26:53;;;;;;;3.05;2.00;;;7.20;99.90;;;;;;5069361;28;21101;-65
2023/03/01 10:29:25;;;;;;;2.15;1.83;;;7.50;99.90;;;;;;5056276;28;20766;-65
2023/03/01 10:31:53;;;;;;;3.97;2.58;;;7.70;99.90;;;;;;5054787;28;20427;-66
2023/03/01 10:34:34;;;;;;;4.05;2.58;;;7.80;99.90;;;;;;5060674;28;20423;-65
2023/03/01 10:37:24;;;;;;;2.58;2.30;;;7.70;99.90;;;;;;5061204;28;20455;-65
2023/03/01 10:40:11;;;;;;;3.40;2.35;;;7.80;99.90;;;;;;5033335;28;20520;-66
2023/03/01 10:42:49;;;;;;;5.65;2.63;;;7.70;99.90;;;;;;5042396;28;20515;-67
2023/03/01 10:45:30;;;;;;;5.93;2.90;;;7.90;99.90;;;;;;5037784;28;20514;-66
2023/03/01 10:48:06;;;;;;;2.80;1.85;;;7.90;99.90;;;;;;5059594;28;20424;-66
2023/03/01 10:50:33;;;;;;;4.27;2.30;;;8.20;99.90;;;;;;5062500;28;20419;-68
2023/03/01 10:53:04;;;;;;;3.15;2.38;;;8.30;99.90;;;;;;5063894;28;20457;-67
2023/03/01 10:55:35;;;;;;;3.53;2.87;;;8.30;99.90;;;;;;5070962;28;20423;-68
2023/03/01 10:58:19;;;;;;;3.40;2.30;;;8.20;99.90;;;;;;5067299;28;20459;-68
2023/03/01 11:00:48;;;;;;;2.88;2.63;;;8.30;99.90;;;;;;5060451;28;20435;-67
2023/03/01 11:03:19;;;;;;;3.75;3.00;;;8.40;99.90;;;;;;5060092;28;20461;-66
2023/03/01 11:06:13;;;;;;;4.23;2.67;;;8.40;99.90;;;;;;5064824;28;20533;-68
2023/03/01 11:08:50;;;;;;;4.53;3.10;;;8.60;99.90;;;;;;5067386;28;20460;-67
2023/03/01 11:11:34;;;;;;;3.22;2.40;;;8.70;99.90;;;;;;5066188;28;20980;-66
2023/03/01 11:14:21;;;;;;;4.57;2.40;;;8.70;99.90;;;;;;5078288;28;20457;-66
2023/03/01 11:17:31;;;;;;;7.37;3.13;;;9.00;99.90;;;;;;5070506;28;20424;-66
2023/03/01 11:20:13;;;;;;;2.50;2.03;;;9.20;99.90;;;;;;5071925;28;20895;-66
2023/03/01 11:22:53;;;;;;;3.50;2.75;;;9.30;99.90;;;;;;5080825;28;20851;-67
2023/03/01 11:25:26;;;;;;;2.97;2.67;;;9.40;99.90;;;;;;5072718;28;20464;-66
2023/03/01 11:27:54;;;;;;;4.07;2.72;;;9.60;99.90;;;;;;5081513;28;20435;-67
2023/03/01 11:30:30;;;;;;;3.58;2.53;;;9.80;99.90;;;;;;5080584;28;20465;-66
2023/03/01 11:33:13;;;;;;;3.60;2.30;;;9.80;99.90;;;;;;5077974;28;20420;-65
2023/03/01 11:35:48;;;;;;;3.65;2.90;;;9.50;99.90;;;;;;5068864;28;20438;-66
2023/03/01 11:38:23;;;;;;;3.53;2.63;;;9.30;99.90;;;;;;5075956;28;20512;-73
2023/03/01 11:40:53;;;;;;;4.45;2.60;;;9.50;99.90;;;;;;5072752;28;20457;-71
2023/03/01 11:43:30;;;;;;;3.35;2.53;;;9.50;99.90;;;;;;5076847;28;20467;-72
2023/03/01 11:46:23;;;;;;;5.93;2.70;;;9.50;99.90;;;;;;5059446;28;20439;-72
2023/03/01 11:48:58;;;;;;;4.90;3.08;;;9.70;99.90;;;;;;5084439;28;20430;-74
2023/03/01 11:51:53;;;;;;;3.20;2.55;;;9.80;99.90;;;;;;5076463;28;20442;-73
2023/03/01 11:54:44;;;;;;;5.45;3.22;;;9.70;99.90;;;;;;5070812;28;20433;-73
2023/03/01 11:57:29;;;;;;;4.10;3.00;;;9.90;99.90;;;;;;5079067;28;20433;-77
2023/03/01 12:00:23;;;;;;;4.78;2.75;;;9.70;99.90;;;;;;5077453;28;21135;-74
2023/03/01 12:03:17;;;;;;;4.10;2.72;;;9.80;99.90;;;;;;5080488;28;20997;-74
2023/03/01 12:06:05;;;;;;;4.25;2.67;;;9.80;99.90;;;;;;5083414;28;20434;-73
2023/03/01 12:08:37;;;;;;;4.82;2.97;;;9.90;99.90;;;;;;5080404;28;20437;-68
2023/03/01 12:11:36;;;;;;;4.95;3.00;;;10.00;99.90;;;;;;5080663;28;20431;-70
2023/03/01 12:14:29;;;;;;;5.80;3.53;;;10.20;99.90;;;;;;5079973;28;20906;-69
2023/03/01 12:17:05;;;;;;;2.88;2.33;;;10.10;99.90;;;;;;5078789;28;20483;-67
2023/03/01 12:19:38;;;;;;;5.18;2.53;;;10.20;99.90;;;;;;5083487;28;20922;-70
2023/03/01 12:22:30;;;;;;;3.28;2.42;;;10.50;99.90;;;;;;5086578;28;20444;-69
2023/03/01 12:25:12;;;;;;;6.32;2.55;;;10.80;99.90;;;;;;5088770;28;20451;-70
2023/03/01 12:28:00;;;;;;;4.25;2.65;;;10.80;99.90;;;;;;5073528;28;20501;-67
2023/03/01 12:30:45;;;;;;;8.70;3.00;;;11.00;99.90;;;;;;5067700;28;20452;-65
2023/03/01 12:33:26;;;;;;;4.85;2.85;;;11.20;99.90;;;;;;5071021;28;22403;-67
2023/03/01 12:36:28;;;;;;;2.50;2.30;;;11.00;99.90;;;;;;5080438;28;20422;-67
2023/03/01 12:39:14;;;;;;;2.63;1.65;;;11.10;99.90;;;;;;5082959;28;20425;-68
2023/03/01 12:41:53;;;;;;;3.58;2.58;;;10.60;99.90;;;;;;5070022;28;20435;-67
2023/03/01 12:44:35;;;;;;;2.15;1.95;;;10.40;99.90;;;;;;5088588;28;20434;-68
2023/03/01 12:47:34;;;;;;;2.25;2.05;;;10.30;99.90;;;;;;5089064;28;20439;-66
2023/03/01 12:50:23;;;;;;;2.38;2.17;;;10.30;99.90;;;;;;5078818;28;20438;-67
2023/03/01 12:52:49;;;;;;;2.08;1.85;;;10.30;99.90;;;;;;5074105;28;20432;-66
2023/03/01 12:55:35;;;;;;;2.05;1.85;;;10.50;99.90;;;;;;5079459;28;20526;-67
2023/03/01 12:58:45;;;;;;;2.53;2.15;;;10.40;99.90;;;;;;5071502;28;20460;-66
2023/03/01 13:01:32;;;;;;;3.95;2.17;;;10.70;99.90;;;;;;5051972;28;20439;-66
2023/03/01 13:04:18;;;;;;;4.68;1.85;;;10.90;99.90;;;;;;5051960;28;20424;-66
2023/03/01 13:06:58;;;;;;;2.13;1.95;;;10.80;99.90;;;;;;5052521;28;20510;-67
2023/03/01 13:09:40;;;;;;;1.85;1.75;;;10.90;99.90;;;;;;5053837;28;20503;-67
2023/03/01 13:12:44;;;;;;;1.85;1.63;;;11.00;99.90;;;;;;5058154;28;20498;-66
2023/03/01 13:15:22;;;;;;;2.60;2.17;;;11.10;99.90;;;;;;5051898;28;20425;-66
2023/03/01 13:18:00;;;;;;;4.03;1.97;;;11.30;99.90;;;;;;5048988;28;20808;-67
2023/03/01 13:20:49;;;;;;;4.35;1.88;;;11.10;99.90;;;;;;5035304;28;20431;-66